Time;durP1;ratioP1;P1;durP2;ratioP2;P2;SDS_P1;SDS_P2;PMS_P1;PMS_P2;Temp;Humidity;BMP_temperature;BMP_pressure;BME280_temperature;BME280_humidity;BME280_pressure;Samples;Min_cycle;Max_cycle;Signal;HPM_P1;HPM_P2
2021/06/30 00:00:21;;;;;;;1.50;1.10;;;;;;;16.65;93.09;100113.63;5026617;28;20061;-75
2021/06/30 00:02:47;;;;;;;2.55;1.60;;;;;;;16.65;92.80;100119.78;5031385;28;20088;-75
2021/06/30 00:05:12;;;;;;;2.22;1.20;;;;;;;16.67;92.93;100128.41;5031201;28;20129;-75
2021/06/30 00:07:38;;;;;;;2.78;1.92;;;;;;;16.60;94.00;100121.41;5023949;28;20471;-76
2021/06/30 00:10:05;;;;;;;2.17;1.90;;;;;;;16.49;94.68;100112.97;5015549;28;20042;-75
2021/06/30 00:12:31;;;;;;;2.45;1.92;;;;;;;16.43;94.90;100118.28;5044438;28;20384;-75
2021/06/30 00:14:56;;;;;;;2.60;2.00;;;;;;;16.38;94.80;100110.88;5026548;28;20029;-74
2021/06/30 00:17:22;;;;;;;2.70;1.77;;;;;;;16.34;94.69;100107.75;5026348;28;20033;-74
2021/06/30 00:19:48;;;;;;;2.13;1.80;;;;;;;16.31;94.86;100100.16;5024296;28;20046;-75
2021/06/30 00:22:13;;;;;;;2.55;1.55;;;;;;;16.31;94.78;100094.84;5027146;28;20025;-75
2021/06/30 00:24:39;;;;;;;2.67;1.52;;;;;;;16.33;94.49;100098.13;5036981;28;20045;-75
2021/06/30 00:27:05;;;;;;;2.08;1.48;;;;;;;16.32;93.86;100087.66;5018078;28;20080;-75
2021/06/30 00:29:30;;;;;;;2.35;1.25;;;;;;;16.35;93.10;100097.91;5029508;28;20115;-75
2021/06/30 00:31:56;;;;;;;1.90;1.40;;;;;;;16.33;92.95;100099.97;5021840;28;20379;-76
2021/06/30 00:34:21;;;;;;;2.50;1.42;;;;;;;16.32;93.33;100095.66;5020647;28;20034;-75
2021/06/30 00:36:47;;;;;;;1.65;1.30;;;;;;;16.30;93.04;100098.53;5027190;28;20033;-75
2021/06/30 00:39:15;;;;;;;2.28;1.90;;;;;;;16.25;93.53;100102.81;5030483;28;20034;-75
2021/06/30 00:41:41;;;;;;;2.42;1.75;;;;;;;16.23;93.19;100104.84;5013327;28;20038;-76
2021/06/30 00:44:06;;;;;;;2.70;1.60;;;;;;;16.23;93.18;100107.50;5018167;28;20042;-75
2021/06/30 00:46:33;;;;;;;3.35;1.30;;;;;;;16.20;92.77;100098.06;5012008;28;20026;-75
2021/06/30 00:48:59;;;;;;;3.20;1.70;;;;;;;16.19;92.73;100101.78;5019124;28;20037;-75
2021/06/30 00:51:26;;;;;;;1.42;1.10;;;;;;;16.18;93.12;100100.09;5021628;28;20039;-75
2021/06/30 00:53:52;;;;;;;2.33;1.80;;;;;;;16.17;93.17;100106.47;5030284;28;20095;-75
2021/06/30 00:56:23;;;;;;;2.00;1.55;;;;;;;16.15;93.15;100103.19;5018596;28;20442;-75
2021/06/30 00:58:53;;;;;;;3.25;1.67;;;;;;;16.15;93.25;100105.84;5025230;28;20041;-75
2021/06/30 01:01:19;;;;;;;1.90;1.60;;;;;;;16.16;92.91;100112.84;5026203;28;20033;-74
2021/06/30 01:03:47;;;;;;;2.00;1.30;;;;;;;16.17;92.80;100106.47;5024530;28;20041;-75
2021/06/30 01:06:13;;;;;;;1.98;1.52;;;;;;;16.18;92.77;100105.44;5018734;28;20041;-75
2021/06/30 01:08:38;;;;;;;2.40;1.70;;;;;;;16.24;92.12;100114.50;5030504;28;20487;-75
2021/06/30 01:11:04;;;;;;;2.88;1.50;;;;;;;16.25;92.51;100113.47;5016279;28;20042;-75
2021/06/30 01:13:29;;;;;;;2.42;1.73;;;;;;;16.23;92.87;100103.03;5017671;28;20068;-74
2021/06/30 01:15:57;;;;;;;3.35;2.03;;;;;;;16.20;93.44;100105.25;5030205;28;20033;-75
2021/06/30 01:18:24;;;;;;;2.22;1.88;;;;;;;16.13;94.01;100095.38;5043924;28;20049;-75
2021/06/30 01:20:51;;;;;;;2.45;2.15;;;;;;;16.11;94.47;100085.91;5029756;28;20562;-75
2021/06/30 01:23:18;;;;;;;2.42;1.95;;;;;;;16.05;94.82;100084.88;5028047;28;20060;-75
2021/06/30 01:25:44;;;;;;;2.17;1.90;;;;;;;16.05;94.39;100092.06;5026220;28;20402;-74
2021/06/30 01:28:10;;;;;;;2.20;1.80;;;;;;;16.02;94.94;100093.28;5026541;28;20645;-75
2021/06/30 01:30:35;;;;;;;2.80;1.67;;;;;;;15.99;95.04;100092.84;5018031;28;20038;-75
2021/06/30 01:33:02;;;;;;;3.88;2.17;;;;;;;15.91;94.75;100093.84;5027271;28;20128;-75
2021/06/30 01:35:28;;;;;;;3.03;1.88;;;;;;;15.90;94.99;100094.88;5030592;28;20050;-74
2021/06/30 01:37:54;;;;;;;3.50;1.90;;;;;;;15.87;95.04;100093.41;5024829;28;20084;-74
2021/06/30 01:40:21;;;;;;;2.28;2.00;;;;;;;15.83;94.96;100100.16;5022834;28;20038;-74
2021/06/30 01:42:49;;;;;;;6.97;3.00;;;;;;;15.78;95.46;100093.75;5028289;28;20498;-75
2021/06/30 01:45:15;;;;;;;4.07;2.25;;;;;;;15.79;95.07;100092.75;5033456;28;20111;-75
2021/06/30 01:47:41;;;;;;;3.28;2.42;;;;;;;15.79;95.73;100104.22;5049273;28;20049;-75
2021/06/30 01:50:07;;;;;;;2.88;2.30;;;;;;;15.81;95.60;100090.72;5016351;28;20076;-75
2021/06/30 01:52:33;;;;;;;2.70;2.05;;;;;;;15.82;94.86;100103.81;5034731;28;20030;-76
2021/06/30 01:54:59;;;;;;;2.72;2.13;;;;;;;15.87;94.61;100105.91;5031894;28;20570;-75
2021/06/30 01:57:25;;;;;;;3.25;2.25;;;;;;;15.90;94.32;100103.69;5033872;28;20038;-75
2021/06/30 01:59:50;;;;;;;5.45;2.65;;;;;;;15.93;93.85;100103.28;5033350;28;20038;-74
2021/06/30 02:02:15;;;;;;;2.60;2.00;;;;;;;15.96;94.02;100109.25;5035756;28;20037;-74
2021/06/30 02:04:41;;;;;;;2.60;2.22;;;;;;;15.98;93.70;100113.34;5032876;28;20034;-74
2021/06/30 02:07:07;;;;;;;3.97;3.00;;;;;;;16.02;93.44;100122.63;5031054;28;20029;-76
2021/06/30 02:09:33;;;;;;;5.70;2.65;;;;;;;16.06;93.20;100120.38;5033652;28;20038;-75
2021/06/30 02:12:00;;;;;;;4.38;3.42;;;;;;;16.06;94.00;100123.03;5032322;28;20393;-75
2021/06/30 02:14:25;;;;;;;4.05;3.15;;;;;;;16.10;93.90;100126.97;5032272;28;20045;-75
2021/06/30 02:16:51;;;;;;;5.00;2.83;;;;;;;16.16;93.21;100118.19;5029417;28;20030;-75
2021/06/30 02:19:16;;;;;;;4.93;2.97;;;;;;;16.21;93.67;100113.06;5030815;28;20044;-74
2021/06/30 02:21:42;;;;;;;5.38;3.38;;;;;;;16.26;92.85;100105.28;5032188;28;20125;-75
2021/06/30 02:24:08;;;;;;;4.90;3.28;;;;;;;16.24;93.29;100112.66;5032340;28;20065;-76
2021/06/30 02:26:34;;;;;;;3.88;2.58;;;;;;;16.26;92.85;100102.63;5046456;28;20117;-75
2021/06/30 02:29:00;;;;;;;4.10;2.75;;;;;;;16.27;92.59;100104.25;5023187;28;20038;-75
2021/06/30 02:31:26;;;;;;;5.43;2.75;;;;;;;16.29;92.51;100101.41;5031789;28;20099;-75
2021/06/30 02:33:52;;;;;;;4.60;2.90;;;;;;;16.28;92.43;100105.06;5022126;28;20042;-75
2021/06/30 02:36:18;;;;;;;5.07;3.17;;;;;;;16.23;92.49;100096.84;5026840;28;20072;-75
2021/06/30 02:38:43;;;;;;;2.88;2.45;;;;;;;16.22;92.43;100092.53;5048898;28;20490;-75
2021/06/30 02:41:08;;;;;;;2.92;2.10;;;;;;;16.19;92.57;100101.78;5030424;28;20044;-75
2021/06/30 02:43:34;;;;;;;3.88;3.22;;;;;;;16.13;92.72;100090.03;5032724;28;20049;-75
2021/06/30 02:45:59;;;;;;;4.45;3.10;;;;;;;16.13;92.36;100098.03;5026538;28;20099;-75
2021/06/30 02:48:25;;;;;;;4.68;3.33;;;;;;;16.16;91.98;100104.00;5046791;28;20111;-74
2021/06/30 02:50:52;;;;;;;5.22;3.17;;;;;;;16.12;92.33;100092.91;5024107;28;20034;-75
2021/06/30 02:53:17;;;;;;;5.60;3.15;;;;;;;16.11;92.50;100100.09;5028691;28;20057;-75
2021/06/30 02:55:43;;;;;;;4.57;2.75;;;;;;;16.09;92.48;100099.47;5030051;28;20056;-74
2021/06/30 02:58:08;;;;;;;5.78;3.03;;;;;;;16.12;91.94;100103.59;5031712;28;20041;-74
2021/06/30 03:00:33;;;;;;;3.72;2.70;;;;;;;16.13;92.08;100107.88;5032032;28;20053;-74
2021/06/30 03:02:59;;;;;;;4.30;2.80;;;;;;;16.12;91.74;100112.41;5022569;28;20038;-73
2021/06/30 03:05:24;;;;;;;2.70;2.15;;;;;;;16.08;92.42;100108.47;5018110;28;20037;-74
2021/06/30 03:07:51;;;;;;;3.25;2.72;;;;;;;16.11;92.23;100115.25;5030940;28;20037;-74
2021/06/30 03:10:18;;;;;;;4.93;2.70;;;;;;;16.11;92.41;100120.59;5030317;28;20143;-75
2021/06/30 03:12:44;;;;;;;5.50;2.70;;;;;;;16.08;93.21;100119.16;5030257;28;20063;-74
2021/06/30 03:15:11;;;;;;;4.78;2.45;;;;;;;16.10;92.53;100117.09;5016227;28;20037;-74
2021/06/30 03:17:37;;;;;;;4.80;2.60;;;;;;;16.14;92.13;100122.88;5032692;28;20037;-75
2021/06/30 03:20:05;;;;;;;3.50;2.67;;;;;;;16.18;91.94;100125.97;5029580;28;20494;-75
2021/06/30 03:22:31;;;;;;;6.13;2.80;;;;;;;16.16;91.50;100120.84;5017823;28;20037;-74
2021/06/30 03:24:57;;;;;;;3.80;2.35;;;;;;;16.15;91.44;100124.53;5029237;28;20102;-74
2021/06/30 03:27:22;;;;;;;5.90;2.60;;;;;;;16.14;91.73;100134.38;5034284;28;20037;-73
2021/06/30 03:29:48;;;;;;;4.50;2.30;;;;;;;16.12;92.21;100136.41;5029563;28;20034;-73
2021/06/30 03:32:13;;;;;;;2.70;2.00;;;;;;;16.13;91.60;100130.03;5027782;28;20399;-74
2021/06/30 03:34:38;;;;;;;4.82;2.45;;;;;;;16.23;90.80;100136.84;5031337;28;20040;-75
2021/06/30 03:37:04;;;;;;;4.55;2.45;;;;;;;16.18;90.92;100137.44;5034221;28;20042;-75
2021/06/30 03:39:29;;;;;;;4.95;2.70;;;;;;;16.22;90.51;100136.03;5025032;28;20053;-74
2021/06/30 03:41:55;;;;;;;5.13;2.28;;;;;;;16.14;90.04;100137.03;5024406;28;20119;-75
2021/06/30 03:44:20;;;;;;;5.10;2.30;;;;;;;16.11;90.29;100141.94;5029322;28;20057;-74
2021/06/30 03:46:45;;;;;;;3.58;2.08;;;;;;;16.11;90.28;100140.13;5030873;28;20041;-76
2021/06/30 03:49:11;;;;;;;4.03;2.20;;;;;;;16.08;89.53;100147.66;5038142;28;20042;-75
2021/06/30 03:51:36;;;;;;;3.92;2.00;;;;;;;16.09;89.76;100141.31;5013346;28;20022;-74
2021/06/30 03:54:02;;;;;;;3.25;1.70;;;;;;;16.08;89.38;100147.66;5026291;28;20079;-74
2021/06/30 03:56:27;;;;;;;3.70;1.90;;;;;;;16.13;89.50;100155.91;5025508;28;20551;-74
2021/06/30 03:58:55;;;;;;;2.90;2.00;;;;;;;16.09;89.38;100160.00;5024202;28;20199;-75
2021/06/30 04:01:21;;;;;;;3.72;2.10;;;;;;;16.05;89.64;100156.06;5022039;28;20074;-74
2021/06/30 04:03:52;;;;;;;3.40;1.83;;;;;;;16.06;89.65;100163.84;5026675;28;20040;-74
2021/06/30 04:06:18;;;;;;;2.83;1.50;;;;;;;16.07;89.48;100154.03;5038997;28;20071;-75
2021/06/30 04:08:43;;;;;;;3.60;1.40;;;;;;;16.14;89.04;100152.22;5018490;28;20037;-74
2021/06/30 04:11:08;;;;;;;2.22;1.40;;;;;;;16.14;88.97;100149.56;5030263;28;20116;-75
2021/06/30 04:13:34;;;;;;;3.83;1.40;;;;;;;16.20;88.83;100154.09;5025277;28;20030;-74
2021/06/30 04:15:59;;;;;;;1.70;1.25;;;;;;;16.13;88.95;100156.72;5029068;28;20088;-74
2021/06/30 04:18:24;;;;;;;1.73;1.00;;;;;;;16.11;89.02;100156.13;5044557;28;20390;-74
2021/06/30 04:20:50;;;;;;;3.22;1.30;;;;;;;16.10;89.10;100151.78;5015992;28;20125;-74
2021/06/30 04:23:15;;;;;;;3.17;1.35;;;;;;;16.09;88.72;100154.66;5026794;28;20109;-73
2021/06/30 04:25:40;;;;;;;3.30;1.40;;;;;;;16.11;88.85;100150.78;5025496;28;20136;-74
2021/06/30 04:28:06;;;;;;;2.72;1.45;;;;;;;16.10;88.63;100154.44;5022865;28;20520;-74
2021/06/30 04:30:32;;;;;;;2.08;1.50;;;;;;;16.10;89.12;100150.97;5030027;28;20033;-74
2021/06/30 04:32:57;;;;;;;3.45;1.30;;;;;;;16.10;89.07;100154.44;5022958;28;20560;-75
2021/06/30 04:35:23;;;;;;;3.53;1.15;;;;;;;16.09;88.67;100146.66;5029703;28;20053;-74
2021/06/30 04:37:48;;;;;;;1.92;1.17;;;;;;;16.05;88.46;100148.88;5025084;28;20108;-74
2021/06/30 04:40:14;;;;;;;1.75;0.90;;;;;;;15.99;88.67;100146.19;5017923;28;20265;-74
2021/06/30 04:42:39;;;;;;;1.60;1.13;;;;;;;15.96;88.45;100144.72;5026606;28;20033;-74
2021/06/30 04:45:05;;;;;;;1.85;1.00;;;;;;;15.97;88.51;100149.06;5028984;28;20055;-74
2021/06/30 04:47:30;;;;;;;2.70;1.00;;;;;;;16.00;88.32;100150.50;5030582;28;20040;-74
2021/06/30 04:49:56;;;;;;;2.42;1.20;;;;;;;16.01;88.42;100149.47;5030226;28;20041;-74
2021/06/30 04:52:21;;;;;;;2.78;1.08;;;;;;;16.07;88.14;100160.19;5029049;28;20458;-75
2021/06/30 04:54:47;;;;;;;1.45;1.17;;;;;;;16.12;88.24;100156.94;5029082;28;20044;-75
2021/06/30 04:57:12;;;;;;;5.32;1.35;;;;;;;16.18;87.22;100156.13;5030422;28;20037;-75
2021/06/30 04:59:37;;;;;;;1.52;1.10;;;;;;;16.22;86.83;100152.06;5025670;28;20121;-75
2021/06/30 05:02:03;;;;;;;1.65;1.05;;;;;;;16.21;86.57;100155.75;5023093;28;20029;-73
2021/06/30 05:04:28;;;;;;;2.08;1.02;;;;;;;16.27;86.69;100154.94;5010417;28;20446;-74
2021/06/30 05:06:54;;;;;;;2.45;0.98;;;;;;;16.26;86.21;100158.66;5018283;28;20065;-74
2021/06/30 05:09:19;;;;;;;2.45;0.93;;;;;;;16.26;85.51;100153.31;5040774;28;20588;-75
2021/06/30 05:11:45;;;;;;;2.03;0.80;;;;;;;16.27;86.03;100164.78;5038008;28;20029;-74
2021/06/30 05:14:10;;;;;;;1.63;0.95;;;;;;;16.34;85.06;100163.81;5043694;28;20044;-74
2021/06/30 05:16:35;;;;;;;1.08;0.73;;;;;;;16.31;84.81;100153.53;5029978;28;20475;-74
2021/06/30 05:19:01;;;;;;;3.22;0.98;;;;;;;16.36;85.24;100163.63;5025069;28;20514;-75
2021/06/30 05:21:26;;;;;;;3.10;0.93;;;;;;;16.27;85.11;100162.94;5029912;28;20041;-74
2021/06/30 05:23:51;;;;;;;1.38;0.80;;;;;;;16.21;85.57;100165.56;5028317;28;20037;-74
2021/06/30 05:26:17;;;;;;;4.22;1.13;;;;;;;16.16;85.22;100170.69;5017538;28;20447;-74
2021/06/30 05:28:42;;;;;;;1.90;0.90;;;;;;;16.16;85.76;100171.53;5014170;28;20029;-75
2021/06/30 05:31:08;;;;;;;2.60;0.90;;;;;;;16.19;85.70;100172.97;5029843;28;20128;-74
2021/06/30 05:33:33;;;;;;;1.40;0.90;;;;;;;16.10;85.79;100177.63;5028919;28;20040;-73
2021/06/30 05:35:58;;;;;;;0.70;0.63;;;;;;;16.10;85.60;100172.31;5016123;28;20037;-74
2021/06/30 05:38:24;;;;;;;1.13;0.75;;;;;;;16.04;85.61;100175.75;5029040;28;22684;-73
2021/06/30 05:40:50;;;;;;;0.95;0.70;;;;;;;16.04;85.64;100175.75;5028170;28;20087;-74
2021/06/30 05:43:16;;;;;;;1.85;0.93;;;;;;;16.04;85.49;100162.41;5029408;28;20030;-75
2021/06/30 05:45:42;;;;;;;1.27;0.90;;;;;;;16.04;85.69;100167.75;5029094;28;20046;-74
2021/06/30 05:48:08;;;;;;;2.38;0.98;;;;;;;16.00;86.13;100179.84;5029601;28;20037;-74
2021/06/30 05:50:33;;;;;;;1.40;0.82;;;;;;;16.02;85.38;100177.81;5039824;28;20112;-74
2021/06/30 05:52:59;;;;;;;1.45;0.77;;;;;;;16.03;85.32;100171.44;5044812;28;20192;-75
2021/06/30 05:55:25;;;;;;;1.20;0.80;;;;;;;15.96;85.49;100176.72;5023230;28;20038;-74
2021/06/30 05:57:50;;;;;;;1.70;0.70;;;;;;;16.00;85.86;100171.84;5022160;28;20033;-74
2021/06/30 06:00:19;;;;;;;2.25;0.70;;;;;;;16.07;85.83;100184.19;5010586;28;20163;-73
2021/06/30 06:02:45;;;;;;;1.05;0.70;;;;;;;16.04;85.74;100181.94;5019151;28;20477;-74
2021/06/30 06:05:11;;;;;;;0.80;0.80;;;;;;;16.05;85.99;100185.41;5025884;28;20176;-74
2021/06/30 06:07:37;;;;;;;1.30;0.82;;;;;;;16.06;86.01;100189.72;5029395;28;20116;-80
2021/06/30 06:10:05;;;;;;;2.63;0.95;;;;;;;16.11;85.10;100192.59;5034216;28;20033;-82
2021/06/30 06:12:30;;;;;;;0.88;0.70;;;;;;;16.06;85.20;100185.19;5038149;28;20044;-81
2021/06/30 06:14:55;;;;;;;2.30;1.00;;;;;;;16.12;84.95;100180.94;5051873;28;20038;-81
2021/06/30 06:17:21;;;;;;;0.98;0.77;;;;;;;16.17;85.01;100181.16;5052671;28;20034;-81
2021/06/30 06:19:46;;;;;;;1.63;0.70;;;;;;;16.22;84.64;100176.06;5035398;28;20033;-82
2021/06/30 06:22:12;;;;;;;1.48;0.75;;;;;;;16.22;84.53;100173.38;5036342;28;20215;-80
2021/06/30 06:24:38;;;;;;;3.13;0.93;;;;;;;16.33;84.19;100169.34;5034883;28;20045;-81
2021/06/30 06:27:06;;;;;;;4.60;1.00;;;;;;;16.34;84.17;100177.13;5035628;28;20091;-79
2021/06/30 06:29:31;;;;;;;2.42;0.90;;;;;;;16.35;84.01;100178.81;5053479;28;20033;-80
2021/06/30 06:31:57;;;;;;;1.90;0.90;;;;;;;16.43;84.08;100171.66;5040484;28;20029;-80
2021/06/30 06:34:23;;;;;;;2.35;0.80;;;;;;;16.35;83.98;100177.97;5040346;28;20032;-80
2021/06/30 06:36:50;;;;;;;0.63;0.63;;;;;;;16.28;84.46;100179.78;5055844;28;20042;-81
2021/06/30 06:39:16;;;;;;;0.95;0.70;;;;;;;16.26;83.49;100174.66;5039633;28;20033;-80
2021/06/30 06:41:41;;;;;;;1.90;0.80;;;;;;;16.28;83.66;100171.78;5039112;28;20034;-80
2021/06/30 06:44:08;;;;;;;1.90;0.80;;;;;;;16.12;84.69;100168.41;5040183;28;20703;-81
2021/06/30 06:46:33;;;;;;;1.63;0.70;;;;;;;16.27;83.99;100176.28;5039982;28;20029;-81
2021/06/30 06:48:58;;;;;;;1.63;0.80;;;;;;;16.31;84.62;100174.88;5039983;28;20034;-82
2021/06/30 06:51:25;;;;;;;1.40;0.82;;;;;;;16.47;83.92;100172.88;5053810;28;20033;-81
2021/06/30 06:53:51;;;;;;;1.27;0.80;;;;;;;16.56;83.82;100177.03;5038328;28;20029;-81
2021/06/30 06:56:19;;;;;;;1.10;0.80;;;;;;;16.70;83.76;100181.38;5054722;28;20044;-81
2021/06/30 06:58:45;;;;;;;1.77;0.70;;;;;;;16.86;82.87;100188.25;5039565;28;20029;-82
2021/06/30 07:01:10;;;;;;;2.33;0.80;;;;;;;17.00;83.88;100185.63;5038930;28;20607;-81
2021/06/30 07:03:36;;;;;;;1.40;0.80;;;;;;;17.36;83.10;100182.59;5040048;28;20049;-81
2021/06/30 07:06:01;;;;;;;2.13;0.70;;;;;;;17.58;81.78;100172.53;5055151;28;20056;-83
2021/06/30 07:08:27;;;;;;;1.38;0.70;;;;;;;17.60;80.98;100181.16;5038724;28;20037;-81
2021/06/30 07:10:52;;;;;;;1.67;0.80;;;;;;;17.52;80.78;100187.53;5038269;28;20033;-82
2021/06/30 07:13:17;;;;;;;0.50;0.50;;;;;;;17.54;79.30;100188.16;5058870;28;20453;-82
2021/06/30 07:15:43;;;;;;;4.85;0.80;;;;;;;17.49;79.47;100185.25;5036720;28;20033;-82
2021/06/30 07:18:13;;;;;;;1.13;0.70;;;;;;;17.35;79.46;100194.31;5053081;28;20079;-81
2021/06/30 07:20:38;;;;;;;1.48;0.75;;;;;;;17.21;79.69;100196.16;5040194;28;20101;-82
2021/06/30 07:23:04;;;;;;;1.52;0.60;;;;;;;17.09;80.31;100205.78;5038852;28;20067;-81
2021/06/30 07:25:29;;;;;;;1.60;0.57;;;;;;;17.00;79.63;100204.34;5038883;28;20128;-84
2021/06/30 07:27:54;;;;;;;1.00;0.63;;;;;;;16.62;82.71;100194.94;5038192;28;20041;-82
2021/06/30 07:30:20;;;;;;;1.00;0.65;;;;;;;16.64;81.91;100206.25;5053493;28;20033;-82
2021/06/30 07:32:45;;;;;;;1.17;0.70;;;;;;;16.61;82.43;100203.94;5039139;28;20046;-82
2021/06/30 07:35:11;;;;;;;1.50;0.80;;;;;;;16.44;84.35;100205.31;5041650;28;20045;-81
2021/06/30 07:37:36;;;;;;;2.00;1.00;;;;;;;16.37;84.24;100205.28;5042451;28;20037;-82
2021/06/30 07:40:04;;;;;;;2.40;1.20;;;;;;;16.22;84.87;100217.94;5047029;28;20071;-81
2021/06/30 07:42:29;;;;;;;1.95;1.02;;;;;;;16.21;84.84;100214.44;5058687;28;20048;-81
2021/06/30 07:44:55;;;;;;;1.77;1.08;;;;;;;16.14;85.87;100211.72;5040327;28;20037;-81
2021/06/30 07:47:20;;;;;;;1.60;1.23;;;;;;;16.05;86.93;100215.56;5038214;28;20383;-82
2021/06/30 07:49:46;;;;;;;2.92;1.27;;;;;;;16.15;85.76;100215.22;5039139;28;20057;-82
2021/06/30 07:52:11;;;;;;;2.70;1.30;;;;;;;16.11;85.46;100214.78;5040389;28;20026;-82
2021/06/30 07:54:36;;;;;;;5.15;1.45;;;;;;;15.96;86.82;100224.72;5040542;28;20036;-81
2021/06/30 07:57:02;;;;;;;1.90;1.30;;;;;;;15.98;87.27;100221.88;5052878;28;20498;-81
2021/06/30 07:59:27;;;;;;;2.95;1.50;;;;;;;16.08;86.70;100223.16;5040010;28;20060;-81
2021/06/30 08:01:52;;;;;;;2.67;1.27;;;;;;;16.00;87.14;100226.00;5054579;28;20033;-82
2021/06/30 08:04:18;;;;;;;3.10;1.48;;;;;;;15.96;87.07;100230.06;5030459;28;20490;-80
2021/06/30 08:06:43;;;;;;;3.42;1.40;;;;;;;15.96;87.07;100224.72;5035213;28;20053;-81
2021/06/30 08:09:08;;;;;;;4.18;1.75;;;;;;;15.84;87.50;100220.94;5040482;28;20041;-80
2021/06/30 08:11:34;;;;;;;2.65;1.55;;;;;;;15.90;87.71;100221.00;5038227;28;20420;-81
2021/06/30 08:13:59;;;;;;;2.80;1.50;;;;;;;15.96;88.35;100216.72;5039162;28;20037;-81
2021/06/30 08:16:25;;;;;;;2.38;1.50;;;;;;;16.09;90.12;100227.50;5039836;28;20033;-81
2021/06/30 08:18:50;;;;;;;3.03;1.17;;;;;;;16.34;90.33;100224.34;5039718;28;20064;-82
2021/06/30 08:21:16;;;;;;;1.95;1.10;;;;;;;16.61;88.61;100219.97;5039350;28;20044;-81
2021/06/30 08:23:43;;;;;;;1.67;0.90;;;;;;;16.95;88.60;100224.44;5039359;28;20033;-81
2021/06/30 08:26:10;;;;;;;2.25;0.95;;;;;;;17.63;85.88;100224.34;5039050;28;20045;-82
2021/06/30 08:28:36;;;;;;;2.08;0.80;;;;;;;18.08;87.26;100218.38;5051861;28;20036;-82
2021/06/30 08:31:02;;;;;;;2.00;0.70;;;;;;;18.31;85.58;100219.78;5038809;28;20060;-82
2021/06/30 08:33:28;;;;;;;1.20;0.70;;;;;;;18.45;85.46;100222.22;5053724;28;20025;-82
2021/06/30 08:35:55;;;;;;;1.20;0.85;;;;;;;18.44;83.92;100225.91;5037509;28;20036;-82
2021/06/30 08:38:21;;;;;;;1.60;1.10;;;;;;;18.15;82.75;100218.38;5037089;28;20034;-82
2021/06/30 08:40:46;;;;;;;1.92;1.10;;;;;;;18.24;80.70;100217.94;5038804;28;20036;-81
2021/06/30 08:43:11;;;;;;;1.80;1.10;;;;;;;18.01;80.45;100210.34;5040229;28;20025;-82
2021/06/30 08:45:37;;;;;;;1.63;1.00;;;;;;;18.21;80.99;100217.53;5040433;28;20038;-81
2021/06/30 08:48:04;;;;;;;2.22;1.17;;;;;;;18.28;79.04;100220.19;5054747;28;20037;-82
2021/06/30 08:50:30;;;;;;;2.13;1.13;;;;;;;18.29;79.21;100213.81;5055514;28;20097;-82
2021/06/30 08:52:56;;;;;;;1.23;0.82;;;;;;;18.65;78.99;100216.78;5040609;28;20607;-81
2021/06/30 08:55:22;;;;;;;1.08;0.80;;;;;;;19.07;75.67;100227.94;5038087;28;20076;-82
2021/06/30 08:57:49;;;;;;;1.23;0.80;;;;;;;18.77;74.34;100213.47;5040367;28;20406;-82
2021/06/30 09:00:16;;;;;;;1.13;0.90;;;;;;;18.73;75.34;100217.56;5038227;28;20040;-82
2021/06/30 09:02:43;;;;;;;1.15;0.73;;;;;;;18.85;76.20;100219.41;5039928;28;20033;-83
2021/06/30 09:07:48;;;;;;;0.90;0.80;;;;;;;18.60;73.93;100211.22;5017098;28;20041;-81
2021/06/30 09:10:35;;;;;;;1.20;0.88;;;;;;;18.67;74.54;100211.22;5015124;28;20045;-82
2021/06/30 09:13:03;;;;;;;0.73;0.65;;;;;;;18.66;72.85;100210.41;5027308;28;20238;-82
2021/06/30 09:15:31;;;;;;;1.45;0.75;;;;;;;18.56;72.97;100212.69;5035906;28;20034;-82
2021/06/30 09:18:31;;;;;;;1.27;0.80;;;;;;;18.42;74.62;100216.44;5051768;28;20132;-82
2021/06/30 09:21:30;;;;;;;1.10;0.60;;;;;;;18.50;73.97;100216.22;5020434;28;20113;-82
2021/06/30 09:23:58;;;;;;;1.77;0.70;;;;;;;18.15;74.63;100221.88;5017424;28;20522;-81
2021/06/30 09:26:23;;;;;;;1.00;0.73;;;;;;;18.14;75.57;100222.06;5015424;28;20061;-81
2021/06/30 09:28:49;;;;;;;1.50;1.15;;;;;;;18.36;76.04;100222.66;5032734;28;20037;-81
2021/06/30 09:31:15;;;;;;;1.15;0.80;;;;;;;18.52;73.57;100226.69;5036978;28;20026;-83
2021/06/30 09:33:55;;;;;;;1.25;0.90;;;;;;;18.86;72.50;100213.00;5037063;28;20096;-81
2021/06/30 09:36:22;;;;;;;2.30;1.10;;;;;;;19.07;74.97;100224.44;5035606;28;20040;-82
2021/06/30 09:38:48;;;;;;;1.25;0.80;;;;;;;19.31;73.21;100233.56;5051419;28;20079;-82
2021/06/30 09:41:18;;;;;;;2.45;1.02;;;;;;;19.55;69.84;100229.28;5036298;28;20059;-82
2021/06/30 09:43:44;;;;;;;1.80;0.90;;;;;;;19.52;67.45;100232.38;5050783;28;20030;-82
2021/06/30 09:46:22;;;;;;;3.00;0.90;;;;;;;19.41;68.29;100231.22;5037192;28;20068;-82
2021/06/30 09:49:01;;;;;;;2.88;1.05;;;;;;;19.07;70.47;100227.13;5037250;28;20572;-81
2021/06/30 09:51:26;;;;;;;1.80;1.02;;;;;;;18.90;70.00;100226.78;5036799;28;20104;-80
2021/06/30 09:53:53;;;;;;;0.82;0.60;;;;;;;18.93;68.87;100221.00;5036507;28;20091;-79
2021/06/30 09:56:38;;;;;;;1.08;0.50;;;;;;;18.97;69.33;100230.25;5037453;28;20068;-81
2021/06/30 09:59:09;;;;;;;0.75;0.45;;;;;;;18.74;71.03;100225.41;5037806;28;20474;-80
2021/06/30 10:01:36;;;;;;;0.40;0.40;;;;;;;18.91;71.23;100224.94;5036449;28;20524;-82
2021/06/30 10:04:02;;;;;;;0.80;0.60;;;;;;;18.86;72.36;100226.41;5031444;28;20036;-80
2021/06/30 10:06:33;;;;;;;2.05;0.60;;;;;;;19.13;67.64;100225.44;5053659;28;20097;-81
2021/06/30 10:09:00;;;;;;;1.73;0.68;;;;;;;19.13;69.10;100225.44;5056830;28;20034;-82
2021/06/30 10:11:27;;;;;;;1.90;0.50;;;;;;;19.26;69.91;100226.19;5042206;28;20025;-81
2021/06/30 10:13:53;;;;;;;0.80;0.60;;;;;;;19.41;68.54;100225.88;5042679;28;20030;-83
2021/06/30 10:16:20;;;;;;;1.08;0.50;;;;;;;19.37;67.27;100218.47;5039276;28;20042;-79
2021/06/30 10:18:49;;;;;;;0.57;0.50;;;;;;;19.39;68.17;100235.16;5040464;28;20037;-80
2021/06/30 10:21:17;;;;;;;0.88;0.50;;;;;;;19.44;71.11;100229.97;5042093;28;20033;-82
2021/06/30 10:23:43;;;;;;;0.77;0.60;;;;;;;19.58;68.75;100233.38;5038899;28;20526;-82
2021/06/30 10:26:09;;;;;;;1.00;0.60;;;;;;;19.93;65.27;100223.00;5038497;28;20504;-80
2021/06/30 10:28:35;;;;;;;0.95;0.52;;;;;;;20.13;66.67;100222.81;5039690;28;20093;-81
2021/06/30 10:31:00;;;;;;;0.65;0.60;;;;;;;20.03;64.70;100217.94;5039663;28;20041;-83
2021/06/30 10:33:34;;;;;;;0.90;0.60;;;;;;;19.89;65.99;100211.06;5040011;28;20040;-81
2021/06/30 10:36:00;;;;;;;1.25;0.70;;;;;;;20.02;65.96;100220.84;5054731;28;20033;-81
2021/06/30 10:38:54;;;;;;;1.35;0.60;;;;;;;20.07;65.48;100210.25;5054742;28;20044;-81
2021/06/30 10:41:39;;;;;;;1.10;0.70;;;;;;;20.36;63.24;100212.22;5038314;28;20079;-79
2021/06/30 10:44:12;;;;;;;2.17;0.70;;;;;;;20.25;63.93;100217.53;5038846;28;20063;-82
2021/06/30 10:46:38;;;;;;;1.38;0.60;;;;;;;20.20;65.24;100210.13;5055039;28;20045;-80
2021/06/30 10:49:17;;;;;;;0.88;0.60;;;;;;;19.97;63.52;100193.84;5038782;28;20055;-80
2021/06/30 10:51:43;;;;;;;2.42;0.70;;;;;;;19.69;68.11;100206.69;5036794;28;20045;-80
2021/06/30 10:54:33;;;;;;;1.95;0.77;;;;;;;19.96;66.85;100192.22;5037816;28;20040;-81
2021/06/30 10:57:17;;;;;;;0.60;0.60;;;;;;;19.89;64.24;100195.78;5038280;28;20026;-81
2021/06/30 10:59:58;;;;;;;0.68;0.60;;;;;;;19.86;66.93;100198.09;5041610;28;20034;-80
2021/06/30 11:02:24;;;;;;;1.23;0.70;;;;;;;20.37;63.99;100180.81;5039926;28;20184;-81
2021/06/30 11:04:50;;;;;;;1.02;0.70;;;;;;;20.65;64.23;100190.22;5040221;28;20434;-80
2021/06/30 11:07:31;;;;;;;1.98;0.70;;;;;;;20.99;61.44;100189.53;5044338;28;20048;-78
2021/06/30 11:09:57;;;;;;;0.73;0.50;;;;;;;21.05;62.64;100195.06;5059164;28;20037;-81
2021/06/30 11:12:52;;;;;;;1.75;0.77;;;;;;;21.07;59.78;100185.72;5041042;28;20723;-80
2021/06/30 11:15:53;;;;;;;0.95;0.60;;;;;;;21.49;60.05;100187.59;5045131;28;20037;-81
2021/06/30 11:18:25;;;;;;;0.70;0.60;;;;;;;21.75;59.67;100186.31;5051839;28;20089;-80
2021/06/30 11:20:51;;;;;;;;;;;;;;;22.10;57.83;100185.50;5040327;28;20084;-80
2021/06/30 11:23:27;;;;;;;0.68;0.50;;;;;;;21.85;57.94;100176.59;5038528;28;19921;-80
2021/06/30 11:25:54;;;;;;;0.60;0.60;;;;;;;21.70;58.60;100184.34;5036535;28;20042;-81